createdAt,value
2018-05-26T00:00:41.708Z,4.00
2018-05-26T00:03:08.444Z,3.97
2018-05-26T00:05:35.163Z,3.53
2018-05-26T00:08:01.874Z,3.90
2018-05-26T00:10:28.611Z,4.50
2018-05-26T00:12:55.315Z,4.10
2018-05-26T00:15:22.024Z,3.50
2018-05-26T00:17:48.735Z,3.60
2018-05-26T00:20:15.431Z,3.80
2018-05-26T00:22:47.735Z,4.40
2018-05-26T00:25:14.435Z,4.00
2018-05-26T00:27:41.130Z,3.67
2018-05-26T00:30:07.835Z,3.87
2018-05-26T00:32:34.532Z,4.03
2018-05-26T00:35:01.267Z,3.90
2018-05-26T00:37:27.964Z,3.77
2018-05-26T00:39:54.660Z,3.53
2018-05-26T00:42:21.369Z,3.70
2018-05-26T00:44:48.067Z,4.27
2018-05-26T00:47:14.792Z,4.23
2018-05-26T00:49:41.488Z,4.20
2018-05-26T00:52:08.180Z,4.37
2018-05-26T00:54:34.890Z,3.60
2018-05-26T00:57:01.601Z,3.73
2018-05-26T00:59:28.323Z,4.00
2018-05-26T01:01:55.016Z,3.77
2018-05-26T01:04:21.716Z,3.93
2018-05-26T01:06:48.411Z,3.97
2018-05-26T01:09:15.104Z,3.60
2018-05-26T01:11:41.832Z,3.87
2018-05-26T01:14:08.539Z,4.20
2018-05-26T01:16:35.241Z,4.43
2018-05-26T01:19:01.940Z,4.33
2018-05-26T01:21:28.641Z,4.43
2018-05-26T01:23:55.363Z,4.50
2018-05-26T01:26:22.067Z,5.00
2018-05-26T01:28:48.768Z,3.93
2018-05-26T01:31:15.468Z,4.00
2018-05-26T01:33:42.180Z,4.30
2018-05-26T01:36:08.915Z,3.83
2018-05-26T01:38:35.620Z,4.40
2018-05-26T01:41:02.328Z,4.40
2018-05-26T01:43:29.031Z,4.40
2018-05-26T01:45:55.731Z,4.20
2018-05-26T01:48:22.460Z,3.77
2018-05-26T01:50:49.165Z,4.07
2018-05-26T01:53:16.014Z,4.07
2018-05-26T01:55:42.717Z,3.90
2018-05-26T01:58:09.429Z,3.40
2018-05-26T02:00:36.154Z,3.80
2018-05-26T02:03:02.884Z,3.77
2018-05-26T02:05:29.599Z,4.17
2018-05-26T02:07:56.319Z,3.93
2018-05-26T02:10:23.015Z,3.70
2018-05-26T02:12:49.743Z,3.80
2018-05-26T02:15:16.454Z,4.00
2018-05-26T02:17:43.163Z,3.77
2018-05-26T02:20:10.837Z,3.93
2018-05-26T02:22:37.540Z,3.93
2018-05-26T02:25:04.323Z,3.73
2018-05-26T02:27:31.015Z,4.37
2018-05-26T02:29:57.716Z,3.70
2018-05-26T02:32:24.414Z,3.60
2018-05-26T02:34:51.118Z,3.87
2018-05-26T02:37:17.864Z,3.67
2018-05-26T02:39:44.563Z,3.60
2018-05-26T02:42:11.320Z,3.67
2018-05-26T02:44:38.028Z,3.80
2018-05-26T02:47:04.734Z,3.63
2018-05-26T02:49:31.458Z,4.23
2018-05-26T02:51:58.165Z,4.10
2018-05-26T02:54:24.911Z,3.53
2018-05-26T02:56:51.604Z,3.97
2018-05-26T02:59:18.324Z,3.30
2018-05-26T03:01:45.023Z,3.70
2018-05-26T03:04:11.317Z,3.37
2018-05-26T03:06:43.847Z,3.17
2018-05-26T03:09:16.188Z,3.57
2018-05-26T03:11:48.612Z,3.73
2018-05-26T03:14:20.944Z,4.07
2018-05-26T03:16:47.659Z,4.10
2018-05-26T03:19:14.515Z,3.70
2018-05-26T03:21:41.235Z,3.80
2018-05-26T03:24:07.943Z,3.97
2018-05-26T03:26:34.644Z,3.90
2018-05-26T03:29:01.352Z,3.23
2018-05-26T03:31:28.056Z,3.90
2018-05-26T03:33:54.783Z,3.40
2018-05-26T03:36:21.529Z,3.53
2018-05-26T03:38:48.212Z,4.07
2018-05-26T03:41:14.922Z,3.60
2018-05-26T03:43:41.619Z,3.90
2018-05-26T03:46:08.347Z,3.70
2018-05-26T03:48:35.048Z,3.77
2018-05-26T03:51:01.750Z,3.57
2018-05-26T03:53:28.459Z,3.70
2018-05-26T03:56:01.107Z,4.20
2018-05-26T03:58:33.588Z,4.03
2018-05-26T04:01:00.288Z,4.00
2018-05-26T04:03:27.071Z,4.20
2018-05-26T04:05:53.840Z,3.70
2018-05-26T04:08:20.531Z,3.60
2018-05-26T04:10:47.242Z,3.87
2018-05-26T04:13:13.947Z,4.10
2018-05-26T04:15:40.683Z,3.90
2018-05-26T04:18:07.388Z,3.73
2018-05-26T04:20:34.107Z,3.60
2018-05-26T04:23:00.803Z,3.80
2018-05-26T04:25:27.532Z,3.90
2018-05-26T04:27:54.252Z,3.93
2018-05-26T04:30:20.973Z,3.43
2018-05-26T04:32:47.677Z,4.00
2018-05-26T04:35:14.371Z,3.80
2018-05-26T04:37:41.084Z,3.57
2018-05-26T04:40:07.845Z,3.80
2018-05-26T04:42:34.544Z,3.77
2018-05-26T04:45:01.247Z,3.27
2018-05-26T04:47:27.964Z,3.70
2018-05-26T04:49:54.705Z,3.70
2018-05-26T04:52:21.405Z,3.50
2018-05-26T04:54:48.103Z,3.60
2018-05-26T04:57:14.824Z,3.50
2018-05-26T04:59:41.536Z,3.83
2018-05-26T05:02:08.235Z,3.50
2018-05-26T05:04:34.956Z,3.23
2018-05-26T05:07:01.664Z,3.37
2018-05-26T05:09:28.392Z,3.30
2018-05-26T05:11:55.088Z,3.80
2018-05-26T05:14:21.795Z,3.40
2018-05-26T05:16:48.521Z,3.23
2018-05-26T05:19:15.255Z,2.83
2018-05-26T05:21:41.951Z,3.10
2018-05-26T05:24:08.659Z,3.13
2018-05-26T05:26:35.357Z,3.40
2018-05-26T05:29:02.085Z,2.80
2018-05-26T05:31:28.806Z,3.07
2018-05-26T05:33:55.519Z,3.00
2018-05-26T05:36:22.222Z,2.87
2018-05-26T05:38:48.923Z,2.80
2018-05-26T05:41:15.635Z,2.80
2018-05-26T05:43:42.335Z,2.50
2018-05-26T05:46:09.049Z,2.93
2018-05-26T05:48:35.753Z,2.30
2018-05-26T05:51:02.462Z,2.50
2018-05-26T05:53:32.147Z,2.40
2018-05-26T05:55:58.845Z,2.30
2018-05-26T05:58:25.550Z,2.53
2018-05-26T06:00:52.259Z,2.37
2018-05-26T06:03:18.983Z,2.00
2018-05-26T06:05:45.703Z,2.10
2018-05-26T06:08:12.412Z,2.20
2018-05-26T06:10:39.108Z,2.17
2018-05-26T06:13:05.836Z,2.20
2018-05-26T06:15:32.584Z,2.40
2018-05-26T06:17:59.312Z,2.20
2018-05-26T06:20:26.015Z,1.97
2018-05-26T06:22:52.712Z,2.20
2018-05-26T06:25:19.419Z,2.20
2018-05-26T06:27:46.124Z,2.60
2018-05-26T06:30:12.864Z,2.33
2018-05-26T06:32:39.571Z,2.30
2018-05-26T06:35:06.279Z,2.40
2018-05-26T06:37:33.007Z,2.40
2018-05-26T06:39:59.722Z,2.40
2018-05-26T06:42:26.457Z,2.33
2018-05-26T06:44:53.164Z,2.30
2018-05-26T06:47:19.885Z,2.50
2018-05-26T06:49:46.580Z,2.60
2018-05-26T06:52:13.292Z,2.83
2018-05-26T06:54:40.015Z,2.60
2018-05-26T06:57:06.720Z,2.80
2018-05-26T06:59:33.427Z,2.60
2018-05-26T07:02:00.154Z,2.57
2018-05-26T07:04:26.876Z,2.80
2018-05-26T07:06:53.599Z,2.70
2018-05-26T07:09:21.189Z,2.90
2018-05-26T07:11:47.891Z,2.90
2018-05-26T07:14:14.587Z,2.93
2018-05-26T07:16:41.285Z,2.90
2018-05-26T07:19:08.019Z,3.00
2018-05-26T07:21:34.715Z,2.63
2018-05-26T07:24:01.416Z,2.73
2018-05-26T07:26:28.119Z,2.53
2018-05-26T07:28:54.819Z,2.77
2018-05-26T07:31:21.708Z,2.80
2018-05-26T07:33:48.474Z,2.87
2018-05-26T07:36:15.139Z,2.60
2018-05-26T07:38:41.843Z,2.93
2018-05-26T07:41:08.536Z,2.80
2018-05-26T07:43:35.319Z,2.90
2018-05-26T07:46:02.013Z,3.00
2018-05-26T07:48:28.857Z,3.27
2018-05-26T07:50:55.547Z,2.80
2018-05-26T07:53:22.275Z,3.00
2018-05-26T07:55:49.023Z,2.70
2018-05-26T07:58:15.757Z,2.90
2018-05-26T08:00:42.469Z,2.63
2018-05-26T08:03:09.204Z,3.10
2018-05-26T08:05:35.949Z,2.80
2018-05-26T08:08:02.695Z,2.60
2018-05-26T08:10:29.429Z,2.97
2018-05-26T08:12:56.144Z,3.00
2018-05-26T08:15:22.859Z,2.90
2018-05-26T08:17:49.580Z,2.30
2018-05-26T08:20:16.319Z,2.70
2018-05-26T08:22:43.029Z,2.60
2018-05-26T08:25:09.734Z,3.10
2018-05-26T08:27:36.463Z,2.80
2018-05-26T08:30:03.156Z,2.87
2018-05-26T08:32:29.952Z,2.83
2018-05-26T08:34:56.715Z,3.00
2018-05-26T08:37:23.448Z,2.87
2018-05-26T08:39:50.152Z,2.90
2018-05-26T08:42:16.854Z,3.03
2018-05-26T08:44:43.584Z,2.87
2018-05-26T08:47:10.335Z,3.20
2018-05-26T08:49:37.823Z,2.87
2018-05-26T08:52:05.345Z,2.70
2018-05-26T08:54:32.054Z,2.77
2018-05-26T08:56:58.826Z,3.10
2018-05-26T08:59:25.536Z,2.70
2018-05-26T09:01:52.255Z,3.03
2018-05-26T09:04:18.969Z,2.90
2018-05-26T09:06:45.676Z,2.93
2018-05-26T09:09:12.379Z,2.80
2018-05-26T09:11:39.091Z,2.90
2018-05-26T09:14:05.886Z,3.00
2018-05-26T09:16:32.596Z,2.67
2018-05-26T09:18:59.304Z,4.85
2018-05-26T09:21:26.020Z,3.10
2018-05-26T09:23:52.753Z,2.92
2018-05-26T09:26:19.493Z,3.10
2018-05-26T09:28:46.207Z,3.40
2018-05-26T09:31:12.953Z,2.90
2018-05-26T09:33:39.664Z,3.20
2018-05-26T09:36:06.392Z,3.00
2018-05-26T09:38:33.125Z,2.97
2018-05-26T09:40:59.852Z,2.77
2018-05-26T09:43:26.888Z,2.93
2018-05-26T09:45:53.599Z,2.90
2018-05-26T09:48:20.315Z,2.73
2018-05-26T09:50:47.057Z,3.20
2018-05-26T09:53:13.792Z,3.00
2018-05-26T09:55:40.491Z,3.00
2018-05-26T09:58:07.437Z,2.87
2018-05-26T10:00:34.146Z,3.03
2018-05-26T10:03:00.906Z,2.80
2018-05-26T10:05:27.684Z,2.67
2018-05-26T10:07:54.381Z,2.67
2018-05-26T10:10:21.125Z,2.70
2018-05-26T10:12:47.846Z,2.93
2018-05-26T10:15:14.583Z,2.80
2018-05-26T10:17:41.275Z,2.80
2018-05-26T10:20:07.997Z,3.13
2018-05-26T10:22:34.832Z,2.70
2018-05-26T10:25:01.560Z,2.80
2018-05-26T10:27:28.291Z,2.90
2018-05-26T10:29:54.993Z,2.90
2018-05-26T10:32:21.965Z,2.87
2018-05-26T10:34:48.615Z,3.20
2018-05-26T10:37:15.327Z,3.00
2018-05-26T10:39:42.058Z,2.75
2018-05-26T10:42:08.775Z,2.80
2018-05-26T10:44:35.487Z,2.97
2018-05-26T10:47:02.199Z,3.47
2018-05-26T10:49:28.968Z,2.97
2018-05-26T10:51:55.663Z,2.78
2018-05-26T10:54:22.360Z,2.75
2018-05-26T10:56:49.064Z,3.00
2018-05-26T10:59:15.791Z,2.67
2018-05-26T11:01:42.515Z,2.92
2018-05-26T11:04:09.255Z,2.72
2018-05-26T11:06:41.687Z,2.90
2018-05-26T11:09:08.391Z,2.78
2018-05-26T11:11:35.095Z,3.00
2018-05-26T11:14:01.836Z,2.67
2018-05-26T11:16:28.592Z,2.65
2018-05-26T11:18:55.303Z,2.75
2018-05-26T11:21:22.563Z,2.72
2018-05-26T11:23:49.268Z,2.95
2018-05-26T11:26:15.996Z,2.50
2018-05-26T11:28:42.696Z,2.80
2018-05-26T11:31:09.434Z,3.10
2018-05-26T11:33:36.128Z,2.80
2018-05-26T11:36:02.835Z,2.97
2018-05-26T11:38:29.619Z,2.80
2018-05-26T11:40:56.327Z,2.90
2018-05-26T11:43:23.031Z,2.60
2018-05-26T11:45:49.829Z,3.15
2018-05-26T11:48:16.541Z,2.90
2018-05-26T11:50:43.268Z,2.58
2018-05-26T11:53:09.972Z,3.10
2018-05-26T11:55:36.893Z,2.95
2018-05-26T11:58:03.618Z,3.22
2018-05-26T12:00:30.329Z,3.08
2018-05-26T12:02:57.063Z,2.95
2018-05-26T12:05:23.775Z,3.00
2018-05-26T12:07:50.500Z,2.80
2018-05-26T12:10:17.331Z,3.10
2018-05-26T12:12:44.177Z,3.03
2018-05-26T12:15:10.908Z,3.58
2018-05-26T12:17:37.627Z,3.40
2018-05-26T12:20:04.323Z,3.58
2018-05-26T12:22:31.026Z,3.58
2018-05-26T12:24:57.730Z,3.47
2018-05-26T12:27:24.452Z,3.70
2018-05-26T12:29:51.151Z,3.60
2018-05-26T12:32:17.843Z,3.90
2018-05-26T12:34:44.543Z,3.47
2018-05-26T12:37:11.239Z,3.77
2018-05-26T12:39:37.975Z,3.80
2018-05-26T12:42:04.717Z,3.80
2018-05-26T12:44:31.411Z,3.47
2018-05-26T12:46:58.123Z,3.70
2018-05-26T12:49:24.828Z,3.70
2018-05-26T12:51:51.565Z,3.33
2018-05-26T12:54:18.750Z,3.50
2018-05-26T12:56:45.472Z,3.80
2018-05-26T12:59:12.208Z,4.07
2018-05-26T13:01:38.912Z,3.40
2018-05-26T13:04:05.645Z,3.80
2018-05-26T13:06:32.357Z,3.90
2018-05-26T13:08:59.059Z,3.63
2018-05-26T13:11:25.771Z,3.40
2018-05-26T13:13:52.487Z,3.80
2018-05-26T13:16:19.196Z,3.47
2018-05-26T13:18:45.893Z,3.00
2018-05-26T13:21:12.604Z,3.17
2018-05-26T13:23:39.307Z,3.33
2018-05-26T13:26:06.047Z,3.50
2018-05-26T13:28:32.769Z,3.03
2018-05-26T13:31:00.118Z,3.40
2018-05-26T13:33:26.836Z,3.23
2018-05-26T13:35:53.543Z,3.60
2018-05-26T13:38:20.288Z,3.30
2018-05-26T13:40:47.127Z,3.60
2018-05-26T13:43:13.841Z,3.40
2018-05-26T13:45:40.658Z,3.47
2018-05-26T13:48:07.707Z,3.47
2018-05-26T13:50:34.506Z,3.00
2018-05-26T13:53:01.254Z,3.00
2018-05-26T13:55:27.960Z,3.13
2018-05-26T13:57:54.659Z,3.00
2018-05-26T14:00:21.359Z,3.10
2018-05-26T14:02:48.201Z,3.00
2018-05-26T14:05:14.978Z,3.40
2018-05-26T14:07:41.683Z,2.93
2018-05-26T14:10:08.397Z,2.70
2018-05-26T14:12:35.107Z,2.90
2018-05-26T14:15:01.852Z,3.20
2018-05-26T14:17:28.582Z,2.60
2018-05-26T14:19:55.283Z,3.00
2018-05-26T14:22:22.014Z,2.80
2018-05-26T14:24:48.724Z,2.70
2018-05-26T14:27:15.468Z,2.80
2018-05-26T14:29:42.180Z,2.87
2018-05-26T14:32:08.880Z,3.00
2018-05-26T14:34:35.588Z,2.80
2018-05-26T14:37:02.279Z,3.20
2018-05-26T14:39:28.995Z,3.00
2018-05-26T14:41:55.722Z,2.80
2018-05-26T14:44:22.434Z,3.00
2018-05-26T14:46:49.178Z,2.60
2018-05-26T14:49:15.916Z,2.80
2018-05-26T14:51:42.775Z,2.57
2018-05-26T14:54:09.548Z,2.70
2018-05-26T14:56:36.322Z,2.60
2018-05-26T14:59:03.314Z,2.50
2018-05-26T15:01:30.077Z,2.80
2018-05-26T15:03:56.814Z,2.87
2018-05-26T15:06:23.588Z,2.33
2018-05-26T15:08:50.294Z,2.87
2018-05-26T15:11:16.991Z,2.50
2018-05-26T15:13:43.687Z,2.63
2018-05-26T15:16:10.424Z,2.60
2018-05-26T15:18:37.167Z,2.87
2018-05-26T15:21:03.877Z,2.90
2018-05-26T15:23:30.615Z,2.40
2018-05-26T15:25:57.314Z,2.60
2018-05-26T15:28:24.053Z,2.43
2018-05-26T15:30:50.776Z,2.50
2018-05-26T15:33:17.493Z,3.10
2018-05-26T15:35:44.192Z,2.90
2018-05-26T15:38:10.895Z,2.63
2018-05-26T15:40:37.632Z,2.63
2018-05-26T15:43:04.338Z,2.47
2018-05-26T15:45:31.046Z,2.40
2018-05-26T15:47:57.809Z,2.63
2018-05-26T15:50:24.560Z,2.30
2018-05-26T15:52:51.291Z,2.53
2018-05-26T15:55:17.991Z,2.67
2018-05-26T15:57:44.719Z,2.50
2018-05-26T16:00:11.460Z,2.73
2018-05-26T16:02:38.266Z,2.27
2018-05-26T16:05:05.028Z,2.40
2018-05-26T16:07:31.734Z,2.40
2018-05-26T16:09:58.428Z,2.30
2018-05-26T16:12:25.132Z,2.60
2018-05-26T16:14:51.836Z,2.20
2018-05-26T16:17:18.547Z,2.50
2018-05-26T16:19:45.249Z,2.60
2018-05-26T16:22:11.947Z,2.83
2018-05-26T16:24:38.654Z,2.20
2018-05-26T16:27:05.358Z,2.50
2018-05-26T16:29:32.165Z,2.53
2018-05-26T16:31:58.847Z,2.20
2018-05-26T16:34:25.717Z,2.33
2018-05-26T16:36:52.424Z,2.30
2018-05-26T16:39:19.131Z,2.80
2018-05-26T16:41:45.872Z,2.60
2018-05-26T16:44:12.567Z,2.37
2018-05-26T16:46:39.283Z,2.40
2018-05-26T16:49:06.000Z,2.73
2018-05-26T16:51:32.703Z,3.10
2018-05-26T16:53:59.420Z,2.30
2018-05-26T16:56:26.132Z,2.73
2018-05-26T16:58:52.886Z,2.57
2018-05-26T17:01:19.728Z,2.33
2018-05-26T17:03:46.443Z,2.47
2018-05-26T17:06:13.153Z,1.90
2018-05-26T17:08:39.851Z,1.90
2018-05-26T17:11:06.565Z,2.40
2018-05-26T17:13:33.287Z,2.30
2018-05-26T17:16:00.003Z,2.23
2018-05-26T17:18:26.711Z,2.30
2018-05-26T17:20:53.408Z,2.13
2018-05-26T17:23:20.139Z,2.40
2018-05-26T17:25:46.839Z,1.87
2018-05-26T17:28:13.531Z,2.17
2018-05-26T17:30:40.255Z,2.37
2018-05-26T17:33:06.969Z,1.80
2018-05-26T17:35:33.678Z,2.03
2018-05-26T17:38:00.379Z,2.00
2018-05-26T17:40:27.090Z,2.13
2018-05-26T17:42:53.823Z,1.90
2018-05-26T17:45:20.537Z,1.67
2018-05-26T17:47:47.232Z,1.93
2018-05-26T17:50:13.932Z,2.00
2018-05-26T17:52:40.644Z,2.00
2018-05-26T17:55:07.375Z,2.00
2018-05-26T17:57:34.105Z,1.90
2018-05-26T18:00:00.812Z,2.13
2018-05-26T18:02:27.510Z,1.90
2018-05-26T18:04:54.211Z,2.00
2018-05-26T18:07:20.979Z,2.10
2018-05-26T18:09:47.683Z,2.17
2018-05-26T18:12:14.436Z,1.90
2018-05-26T18:14:41.140Z,1.87
2018-05-26T18:17:07.863Z,1.80
2018-05-26T18:19:34.584Z,1.83
2018-05-26T18:22:01.289Z,2.03
2018-05-26T18:24:28.001Z,2.10
2018-05-26T18:26:54.713Z,2.47
2018-05-26T18:29:21.425Z,2.07
2018-05-26T18:31:48.157Z,2.20
2018-05-26T18:34:14.860Z,2.20
2018-05-26T18:36:41.584Z,2.13
2018-05-26T18:39:08.425Z,2.40
2018-05-26T18:41:35.133Z,2.20
2018-05-26T18:44:01.866Z,1.97
2018-05-26T18:46:28.577Z,2.30
2018-05-26T18:48:55.291Z,2.20
2018-05-26T18:51:21.991Z,2.10
2018-05-26T18:53:48.699Z,2.00
2018-05-26T18:56:15.427Z,2.10
2018-05-26T18:58:42.135Z,2.30
2018-05-26T19:01:08.848Z,2.30
2018-05-26T19:03:35.559Z,2.37
2018-05-26T19:06:02.264Z,2.20
2018-05-26T19:08:28.991Z,2.17
2018-05-26T19:10:55.683Z,2.20
2018-05-26T19:13:22.381Z,2.40
2018-05-26T19:15:49.102Z,2.60
2018-05-26T19:18:15.807Z,2.17
2018-05-26T19:20:42.527Z,2.37
2018-05-26T19:23:09.229Z,2.70
2018-05-26T19:25:35.924Z,2.30
2018-05-26T19:28:02.668Z,2.60
2018-05-26T19:30:29.363Z,2.73
2018-05-26T19:32:56.078Z,2.50
2018-05-26T19:35:22.776Z,2.40
2018-05-26T19:37:49.480Z,2.23
2018-05-26T19:40:16.185Z,2.17
2018-05-26T19:42:42.883Z,2.27
2018-05-26T19:45:09.633Z,3.50
2018-05-26T19:47:36.347Z,3.13
2018-05-26T19:50:03.081Z,2.93
2018-05-26T19:52:29.805Z,2.80
2018-05-26T19:54:56.543Z,2.60
2018-05-26T19:57:23.533Z,3.50
2018-05-26T19:59:50.284Z,3.10
2018-05-26T20:02:16.988Z,3.60
2018-05-26T20:04:43.746Z,3.27
2018-05-26T20:07:10.447Z,3.70
2018-05-26T20:09:37.167Z,3.40
2018-05-26T20:12:03.875Z,4.40
2018-05-26T20:14:30.583Z,3.80
2018-05-26T20:16:57.287Z,3.20
2018-05-26T20:19:24.354Z,3.10
2018-05-26T20:21:51.168Z,3.40
2018-05-26T20:24:17.873Z,3.20
2018-05-26T20:26:45.014Z,3.30
2018-05-26T20:29:11.723Z,3.10
2018-05-26T20:31:38.434Z,3.07
2018-05-26T20:34:05.156Z,2.80
2018-05-26T20:36:31.863Z,2.70
2018-05-26T20:38:58.722Z,2.57
2018-05-26T20:41:25.451Z,3.30
2018-05-26T20:43:52.155Z,3.10
2018-05-26T20:46:18.888Z,3.00
2018-05-26T20:48:45.623Z,3.10
2018-05-26T20:51:12.387Z,3.63
2018-05-26T20:53:39.094Z,3.30
2018-05-26T20:56:05.797Z,3.13
2018-05-26T20:58:32.529Z,3.23
2018-05-26T21:00:59.232Z,3.10
2018-05-26T21:03:26.055Z,3.23
2018-05-26T21:05:52.775Z,3.13
2018-05-26T21:08:19.670Z,3.20
2018-05-26T21:10:46.411Z,3.27
2018-05-26T21:13:13.114Z,3.10
2018-05-26T21:15:39.843Z,3.23
2018-05-26T21:18:06.562Z,2.97
2018-05-26T21:20:33.271Z,3.30
2018-05-26T21:22:59.991Z,3.00
2018-05-26T21:25:26.695Z,3.60
2018-05-26T21:27:53.441Z,3.30
2018-05-26T21:30:20.126Z,3.83
2018-05-26T21:32:46.823Z,3.63
2018-05-26T21:35:13.547Z,3.17
2018-05-26T21:37:40.250Z,3.30
2018-05-26T21:40:06.947Z,3.27
2018-05-26T21:42:33.651Z,2.90
2018-05-26T21:45:00.351Z,3.10
2018-05-26T21:47:27.083Z,3.17
2018-05-26T21:49:53.799Z,3.20
2018-05-26T21:52:20.500Z,3.23
2018-05-26T21:54:47.203Z,3.13
2018-05-26T21:57:13.899Z,3.60
2018-05-26T21:59:40.642Z,3.30
2018-05-26T22:02:07.344Z,3.57
2018-05-26T22:04:34.063Z,3.97
2018-05-26T22:07:00.767Z,4.20
2018-05-26T22:09:27.472Z,3.80
2018-05-26T22:11:54.202Z,3.40
2018-05-26T22:14:20.957Z,3.50
2018-05-26T22:16:47.643Z,3.70
2018-05-26T22:19:14.339Z,3.60
2018-05-26T22:21:41.046Z,4.00
2018-05-26T22:24:07.781Z,3.80
2018-05-26T22:26:34.479Z,3.60
2018-05-26T22:29:01.190Z,4.13
2018-05-26T22:31:27.897Z,3.80
2018-05-26T22:33:54.599Z,3.83
2018-05-26T22:36:21.311Z,3.57
2018-05-26T22:38:48.015Z,3.67
2018-05-26T22:41:14.711Z,3.67
2018-05-26T22:43:41.415Z,3.43
2018-05-26T22:46:08.115Z,3.60
2018-05-26T22:48:34.835Z,3.50
2018-05-26T22:51:01.535Z,3.40
2018-05-26T22:53:28.245Z,3.73
2018-05-26T22:55:54.956Z,3.70
2018-05-26T22:58:21.854Z,3.90
2018-05-26T23:00:48.571Z,3.80
2018-05-26T23:03:15.287Z,3.97
2018-05-26T23:05:42.003Z,3.70
2018-05-26T23:08:08.703Z,3.50
2018-05-26T23:10:35.400Z,4.10
2018-05-26T23:13:02.112Z,4.00
2018-05-26T23:15:28.835Z,3.93
2018-05-26T23:17:55.535Z,4.03
2018-05-26T23:20:22.231Z,3.50
2018-05-26T23:22:48.971Z,3.77
2018-05-26T23:25:15.679Z,3.57
2018-05-26T23:27:42.376Z,3.80
2018-05-26T23:30:09.100Z,3.00
2018-05-26T23:32:36.116Z,3.57
2018-05-26T23:35:02.819Z,3.30
2018-05-26T23:37:29.543Z,3.40
2018-05-26T23:39:56.244Z,3.70
2018-05-26T23:42:23.004Z,3.90
2018-05-26T23:44:49.703Z,3.70
2018-05-26T23:47:16.403Z,3.80
2018-05-26T23:49:43.102Z,4.00
2018-05-26T23:52:09.809Z,3.83
2018-05-26T23:54:36.509Z,3.77
2018-05-26T23:57:03.234Z,3.50
2018-05-26T23:59:29.955Z,4.07
